Time;durP1;ratioP1;P1;durP2;ratioP2;P2;SDS_P1;SDS_P2;PMS_P1;PMS_P2;Temp;Humidity;BMP_temperature;BMP_pressure;BME280_temperature;BME280_humidity;BME280_pressure;Samples;Min_cycle;Max_cycle;Signal;HPM_P1;HPM_P2
2023/08/18 00:01:32;;;;;;;4.63;3.25;;;16.10;99.90;;;;;;4975636;28;20038;-74
2023/08/18 00:03:58;;;;;;;6.05;3.80;;;16.00;99.90;;;;;;5028492;28;20088;-73
2023/08/18 00:06:24;;;;;;;8.90;3.78;;;16.10;99.90;;;;;;4999229;28;20076;-72
2023/08/18 00:08:49;;;;;;;6.63;4.05;;;16.10;99.90;;;;;;4975996;28;20546;-72
2023/08/18 00:11:15;;;;;;;9.35;3.97;;;16.10;99.90;;;;;;5033433;28;20050;-72
2023/08/18 00:13:41;;;;;;;6.60;3.40;;;16.10;99.90;;;;;;5005135;28;20042;-72
2023/08/18 00:16:07;;;;;;;6.25;3.53;;;16.10;99.90;;;;;;4998965;28;20080;-72
2023/08/18 00:18:32;;;;;;;6.32;3.45;;;16.10;99.90;;;;;;4993995;28;22177;-72
2023/08/18 00:20:58;;;;;;;5.80;2.95;;;16.10;99.90;;;;;;5032595;28;20046;-72
2023/08/18 00:23:24;;;;;;;7.28;3.28;;;16.10;99.90;;;;;;5012691;28;20038;-72
2023/08/18 00:25:50;;;;;;;11.77;3.60;;;16.10;99.90;;;;;;4991745;28;20050;-73
2023/08/18 00:28:15;;;;;;;7.78;3.60;;;16.00;99.90;;;;;;4997220;28;20436;-72
2023/08/18 00:30:41;;;;;;;6.60;3.40;;;16.10;99.90;;;;;;5029517;28;20040;-72
2023/08/18 00:33:07;;;;;;;5.68;3.20;;;16.10;99.90;;;;;;5005430;28;20475;-72
2023/08/18 00:35:34;;;;;;;5.07;3.15;;;16.10;99.90;;;;;;4993043;28;20043;-72
2023/08/18 00:38:00;;;;;;;4.07;3.15;;;16.00;99.90;;;;;;4989872;28;20030;-72
2023/08/18 00:40:25;;;;;;;5.22;3.28;;;16.00;99.90;;;;;;5031897;28;20042;-72
2023/08/18 00:42:51;;;;;;;4.68;3.30;;;16.00;99.90;;;;;;4990984;28;20046;-72
2023/08/18 00:45:17;;;;;;;6.93;3.30;;;16.00;99.90;;;;;;5041888;28;20050;-72
2023/08/18 00:47:44;;;;;;;8.05;3.20;;;16.00;99.90;;;;;;4992499;28;20045;-72
2023/08/18 00:50:11;;;;;;;10.25;3.90;;;16.00;99.90;;;;;;5033013;28;20077;-72
2023/08/18 00:52:42;;;;;;;4.30;3.10;;;16.00;99.90;;;;;;4999896;28;20044;-72
2023/08/18 00:55:09;;;;;;;6.20;3.13;;;16.00;99.90;;;;;;4986937;28;20064;-72
2023/08/18 00:57:36;;;;;;;4.32;2.60;;;16.00;99.90;;;;;;5003744;28;20080;-72
2023/08/18 01:00:03;;;;;;;7.45;2.88;;;16.00;99.90;;;;;;4988495;28;20045;-72
2023/08/18 01:02:30;;;;;;;4.45;2.83;;;16.00;99.90;;;;;;5003886;28;20046;-72
2023/08/18 01:05:00;;;;;;;5.88;3.10;;;16.00;99.90;;;;;;5023439;28;20069;-72
2023/08/18 01:07:27;;;;;;;4.60;3.58;;;16.00;99.90;;;;;;5025781;28;20037;-72
2023/08/18 01:09:53;;;;;;;5.43;3.05;;;16.00;99.90;;;;;;5037376;28;20112;-72
2023/08/18 01:12:42;;;;;;;3.55;3.17;;;16.00;99.90;;;;;;5001409;28;20070;-72
2023/08/18 01:15:15;;;;;;;4.78;3.28;;;16.00;99.90;;;;;;5030792;28;20046;-72
2023/08/18 01:18:04;;;;;;;5.05;3.28;;;15.90;99.90;;;;;;5009098;28;20088;-72
2023/08/18 01:20:31;;;;;;;4.25;3.03;;;16.00;99.90;;;;;;5003160;28;20049;-72
2023/08/18 01:22:57;;;;;;;5.85;3.45;;;15.90;99.90;;;;;;4996939;28;20388;-72
2023/08/18 01:25:25;;;;;;;3.25;2.85;;;16.00;99.90;;;;;;5001911;28;20034;-72
2023/08/18 01:27:52;;;;;;;6.63;3.53;;;16.00;99.90;;;;;;4997437;28;20044;-72
2023/08/18 01:30:18;;;;;;;4.22;3.20;;;16.00;99.90;;;;;;5013543;28;20535;-72
2023/08/18 01:32:55;;;;;;;4.57;3.45;;;16.00;99.90;;;;;;4998194;28;20397;-72
2023/08/18 01:35:25;;;;;;;5.30;3.88;;;16.00;99.90;;;;;;5031613;28;20050;-72
2023/08/18 01:37:54;;;;;;;6.65;3.72;;;16.00;99.90;;;;;;4996920;28;20427;-72
2023/08/18 01:40:24;;;;;;;6.05;3.80;;;16.00;99.90;;;;;;4999581;28;20046;-72
2023/08/18 01:42:51;;;;;;;6.55;3.80;;;16.00;99.90;;;;;;4999157;28;20057;-72
2023/08/18 01:45:17;;;;;;;8.10;3.90;;;16.00;99.90;;;;;;4992360;28;20054;-73
2023/08/18 01:47:42;;;;;;;8.18;4.45;;;16.00;99.90;;;;;;5037769;28;20041;-72
2023/08/18 01:50:09;;;;;;;8.02;4.18;;;16.00;99.90;;;;;;4993436;28;20117;-72
2023/08/18 01:52:35;;;;;;;5.57;3.78;;;16.00;99.90;;;;;;5002592;28;20038;-72
2023/08/18 01:55:01;;;;;;;7.93;4.13;;;16.00;99.90;;;;;;4990725;28;20048;-72
2023/08/18 01:57:27;;;;;;;9.82;5.18;;;15.90;99.90;;;;;;4975906;28;20041;-72
2023/08/18 01:59:52;;;;;;;8.88;4.57;;;16.00;99.90;;;;;;4997848;28;20115;-72
2023/08/18 02:02:18;;;;;;;8.60;4.65;;;16.00;99.90;;;;;;4973939;28;20137;-72
2023/08/18 02:04:44;;;;;;;9.48;5.07;;;16.00;99.90;;;;;;5031876;28;20556;-72
2023/08/18 02:07:09;;;;;;;9.77;5.00;;;16.00;99.90;;;;;;4988955;28;20046;-72
2023/08/18 02:09:37;;;;;;;8.65;5.07;;;16.00;99.90;;;;;;5005334;28;20033;-73
2023/08/18 02:12:03;;;;;;;8.90;5.10;;;16.00;99.90;;;;;;5024722;28;20074;-72
2023/08/18 02:14:29;;;;;;;11.60;4.90;;;16.00;99.90;;;;;;5004138;28;20119;-72
2023/08/18 02:16:56;;;;;;;12.60;5.38;;;16.00;99.90;;;;;;4959036;28;20123;-72
2023/08/18 02:19:22;;;;;;;11.45;5.60;;;15.90;99.90;;;;;;5000311;28;20116;-72
2023/08/18 02:21:48;;;;;;;10.45;5.18;;;16.00;99.90;;;;;;5010869;28;20483;-72
2023/08/18 02:24:14;;;;;;;9.25;4.85;;;16.00;99.90;;;;;;5020159;28;20500;-72
2023/08/18 02:26:40;;;;;;;12.20;6.00;;;16.00;99.90;;;;;;5045757;28;20092;-72
2023/08/18 02:29:06;;;;;;;12.13;5.43;;;15.90;99.90;;;;;;4990416;28;20376;-72
2023/08/18 02:31:32;;;;;;;10.15;5.50;;;16.00;99.90;;;;;;4999779;28;20155;-72
2023/08/18 02:33:58;;;;;;;12.25;5.95;;;15.90;99.90;;;;;;5035655;28;20054;-72
2023/08/18 02:36:24;;;;;;;10.80;5.45;;;16.00;99.90;;;;;;5008604;28;20081;-72
2023/08/18 02:38:49;;;;;;;8.70;4.93;;;16.00;99.90;;;;;;4986422;28;20495;-72
2023/08/18 02:41:17;;;;;;;8.55;5.07;;;16.00;99.90;;;;;;5024608;28;20044;-72
2023/08/18 02:43:47;;;;;;;8.65;5.22;;;16.00;99.90;;;;;;4998118;28;20121;-72
2023/08/18 02:46:13;;;;;;;10.13;5.32;;;15.90;99.90;;;;;;4993255;28;20050;-72
2023/08/18 02:48:39;;;;;;;10.57;5.50;;;15.90;99.90;;;;;;4997005;28;20097;-72
2023/08/18 02:51:07;;;;;;;11.80;5.82;;;15.90;99.90;;;;;;4989150;28;20523;-72
2023/08/18 02:53:33;;;;;;;11.30;5.88;;;16.00;99.90;;;;;;5023509;28;20084;-72
2023/08/18 02:55:59;;;;;;;17.65;5.88;;;15.90;99.90;;;;;;4994831;28;20042;-72
2023/08/18 02:58:29;;;;;;;10.18;5.32;;;15.90;99.90;;;;;;4975438;28;20038;-72
2023/08/18 03:00:55;;;;;;;9.15;5.20;;;16.00;99.90;;;;;;5017380;28;20117;-72
2023/08/18 03:03:23;;;;;;;12.52;6.18;;;16.00;99.90;;;;;;5035438;28;20054;-72
2023/08/18 03:05:50;;;;;;;11.43;4.82;;;16.00;99.90;;;;;;5009654;28;20042;-72
2023/08/18 03:08:15;;;;;;;7.93;5.53;;;15.90;99.90;;;;;;4990946;28;20575;-73
2023/08/18 03:10:41;;;;;;;8.38;5.60;;;16.00;99.90;;;;;;4991774;28;20118;-72
2023/08/18 03:13:07;;;;;;;10.55;5.70;;;16.00;99.90;;;;;;5024334;28;20494;-72
2023/08/18 03:15:40;;;;;;;7.22;4.90;;;16.00;99.90;;;;;;4990162;28;20072;-72
2023/08/18 03:18:06;;;;;;;7.18;5.13;;;16.00;99.90;;;;;;5000372;28;20048;-73
2023/08/18 03:20:32;;;;;;;7.75;4.95;;;15.90;99.90;;;;;;5000030;28;20562;-72
2023/08/18 03:22:58;;;;;;;8.50;4.95;;;15.90;99.90;;;;;;4990178;28;20077;-73
2023/08/18 03:25:24;;;;;;;12.75;5.38;;;16.00;99.90;;;;;;5008007;28;20046;-72
2023/08/18 03:27:51;;;;;;;12.52;6.18;;;16.00;99.90;;;;;;4987334;28;20045;-72
2023/08/18 03:30:16;;;;;;;8.57;5.50;;;16.00;99.90;;;;;;5007080;28;20091;-72
2023/08/18 03:32:42;;;;;;;11.27;5.30;;;16.00;99.90;;;;;;5004145;28;20446;-72
2023/08/18 03:35:08;;;;;;;11.85;5.60;;;16.00;99.90;;;;;;4971668;28;20054;-72
2023/08/18 03:37:34;;;;;;;7.43;5.18;;;15.90;99.90;;;;;;5034158;28;20088;-72
2023/08/18 03:39:59;;;;;;;10.10;4.93;;;15.90;99.90;;;;;;5027389;28;20125;-72
2023/08/18 03:42:25;;;;;;;9.88;4.88;;;15.90;99.90;;;;;;4999145;28;20037;-72
2023/08/18 03:44:51;;;;;;;9.93;5.72;;;16.00;99.90;;;;;;4992100;28;20042;-72
2023/08/18 03:47:16;;;;;;;14.90;5.43;;;16.00;99.90;;;;;;5029589;28;20564;-72
2023/08/18 03:49:42;;;;;;;10.80;5.72;;;16.00;99.90;;;;;;4988991;28;20022;-72
2023/08/18 03:52:08;;;;;;;15.27;6.07;;;16.00;99.90;;;;;;5033962;28;20419;-72
2023/08/18 03:54:33;;;;;;;11.45;6.05;;;16.00;99.90;;;;;;4971749;28;20049;-72
2023/08/18 03:56:59;;;;;;;7.28;5.40;;;16.00;99.90;;;;;;5019674;28;20492;-72
2023/08/18 03:59:25;;;;;;;7.15;5.35;;;15.90;99.90;;;;;;4971107;28;20534;-72
2023/08/18 04:01:51;;;;;;;9.65;6.28;;;15.90;99.90;;;;;;5006369;28;20050;-72
2023/08/18 04:04:16;;;;;;;9.50;5.85;;;15.90;99.90;;;;;;5033743;28;20045;-72
2023/08/18 04:06:42;;;;;;;8.68;5.65;;;15.90;99.90;;;;;;5030255;28;20045;-72
2023/08/18 04:09:17;;;;;;;7.45;5.88;;;15.90;99.90;;;;;;4974245;28;20038;-72
2023/08/18 04:11:44;;;;;;;9.60;5.72;;;16.00;99.90;;;;;;4968868;28;20125;-72
2023/08/18 04:14:10;;;;;;;7.82;5.25;;;16.00;99.90;;;;;;5015405;28;20045;-72
2023/08/18 04:16:36;;;;;;;6.80;5.20;;;15.90;99.90;;;;;;5024945;28;20159;-73
2023/08/18 04:19:03;;;;;;;12.63;6.32;;;16.00;99.90;;;;;;4987880;28;20088;-72
2023/08/18 04:21:29;;;;;;;9.05;5.15;;;16.00;99.90;;;;;;4992042;28;20108;-72
2023/08/18 04:23:55;;;;;;;10.38;5.55;;;16.00;99.90;;;;;;5004688;28;20046;-72
2023/08/18 04:26:21;;;;;;;10.88;6.15;;;16.00;99.90;;;;;;4990463;28;20415;-72
2023/08/18 04:28:47;;;;;;;10.65;6.25;;;16.00;99.90;;;;;;4997179;28;20165;-72
2023/08/18 04:31:13;;;;;;;8.98;5.53;;;16.00;99.90;;;;;;5022466;28;20072;-73
2023/08/18 04:33:39;;;;;;;10.20;6.28;;;15.90;99.90;;;;;;5013999;28;20058;-72
2023/08/18 04:36:05;;;;;;;11.13;6.60;;;16.00;99.90;;;;;;5004421;28;20041;-72
2023/08/18 04:38:31;;;;;;;10.52;5.75;;;16.00;99.90;;;;;;4990949;28;20038;-72
2023/08/18 04:41:01;;;;;;;11.82;5.95;;;16.00;99.90;;;;;;5011518;28;20045;-72
2023/08/18 04:43:28;;;;;;;10.02;6.57;;;16.00;99.90;;;;;;5016369;28;20064;-72
2023/08/18 04:45:54;;;;;;;10.88;6.93;;;16.00;99.90;;;;;;5017715;28;20034;-72
2023/08/18 04:48:21;;;;;;;10.85;6.80;;;16.00;99.90;;;;;;5003838;28;20376;-72
2023/08/18 04:50:47;;;;;;;10.32;5.72;;;16.20;99.90;;;;;;4965363;28;20038;-72
2023/08/18 04:53:12;;;;;;;12.38;7.20;;;16.00;99.90;;;;;;4988216;28;20045;-72
2023/08/18 04:55:39;;;;;;;14.43;6.55;;;16.00;99.90;;;;;;5016483;28;20527;-72
2023/08/18 04:58:05;;;;;;;12.00;6.45;;;16.00;99.90;;;;;;5013615;28;20049;-72
2023/08/18 05:00:30;;;;;;;14.48;7.05;;;16.00;99.90;;;;;;4998117;28;20180;-72
2023/08/18 05:02:56;;;;;;;10.68;6.80;;;16.00;99.90;;;;;;5020852;28;20117;-72
2023/08/18 05:05:22;;;;;;;10.27;6.45;;;16.00;99.90;;;;;;5000765;28;20570;-72
2023/08/18 05:07:47;;;;;;;9.45;6.97;;;16.00;99.90;;;;;;4996824;28;20045;-72
2023/08/18 05:10:13;;;;;;;12.18;6.80;;;16.00;99.90;;;;;;4996057;28;20034;-73
2023/08/18 05:12:40;;;;;;;9.93;6.55;;;16.00;99.90;;;;;;5021548;28;20403;-72
2023/08/18 05:15:07;;;;;;;11.68;7.00;;;16.00;99.90;;;;;;5000602;28;20042;-72
2023/08/18 05:17:33;;;;;;;12.45;6.53;;;16.10;99.90;;;;;;5025091;28;20073;-72
2023/08/18 05:19:59;;;;;;;10.27;6.20;;;16.00;99.90;;;;;;4992860;28;20128;-72
2023/08/18 05:22:25;;;;;;;9.88;6.32;;;16.00;99.90;;;;;;5009893;28;20504;-72
2023/08/18 05:24:51;;;;;;;12.20;6.18;;;16.00;99.90;;;;;;4982559;28;20096;-72
2023/08/18 05:27:17;;;;;;;9.48;6.32;;;16.00;99.90;;;;;;4990871;28;20037;-72
2023/08/18 05:29:43;;;;;;;12.45;6.15;;;16.00;99.90;;;;;;4992087;28;20491;-72
2023/08/18 05:32:08;;;;;;;10.23;6.35;;;16.00;99.90;;;;;;5036338;28;20034;-72
2023/08/18 05:34:34;;;;;;;10.65;6.72;;;16.10;99.90;;;;;;5028989;28;20509;-72
2023/08/18 05:37:00;;;;;;;9.90;6.22;;;16.10;99.90;;;;;;5001857;28;20049;-73
2023/08/18 05:39:27;;;;;;;15.80;7.13;;;16.00;99.90;;;;;;5025470;28;20097;-72
2023/08/18 05:41:53;;;;;;;8.50;6.00;;;16.10;99.90;;;;;;5034811;28;20038;-72
2023/08/18 05:44:18;;;;;;;11.38;6.10;;;16.10;99.90;;;;;;5006175;28;20104;-72
2023/08/18 05:46:44;;;;;;;8.00;5.85;;;16.10;99.90;;;;;;5010071;28;20044;-72
2023/08/18 05:49:10;;;;;;;11.93;6.72;;;16.10;99.90;;;;;;5024420;28;20427;-73
2023/08/18 05:51:36;;;;;;;13.75;6.20;;;16.10;99.90;;;;;;5001541;28;20033;-72
2023/08/18 05:54:03;;;;;;;12.32;6.40;;;16.10;99.90;;;;;;5002294;28;20545;-72
2023/08/18 05:56:29;;;;;;;11.43;6.30;;;16.20;99.90;;;;;;5002829;28;20109;-72
2023/08/18 05:58:55;;;;;;;16.15;6.53;;;16.20;99.90;;;;;;4999690;28;20122;-72
2023/08/18 06:01:21;;;;;;;15.80;7.05;;;16.20;99.90;;;;;;5026783;28;20431;-72
2023/08/18 06:03:46;;;;;;;13.52;7.13;;;16.20;99.90;;;;;;5042315;28;20565;-73
2023/08/18 06:06:12;;;;;;;11.65;7.20;;;16.20;99.90;;;;;;5004311;28;20050;-72
2023/08/18 06:08:38;;;;;;;14.68;6.90;;;16.30;99.90;;;;;;5027816;28;20034;-72
2023/08/18 06:11:04;;;;;;;14.82;6.32;;;16.20;99.90;;;;;;5029206;28;20438;-72
2023/08/18 06:13:29;;;;;;;10.45;6.68;;;16.30;99.90;;;;;;5025777;28;20041;-73
2023/08/18 06:15:55;;;;;;;12.18;6.57;;;16.30;99.90;;;;;;5010754;28;20046;-72
2023/08/18 06:18:21;;;;;;;13.73;6.68;;;16.40;99.90;;;;;;5011855;28;20615;-72
2023/08/18 06:20:47;;;;;;;12.30;7.13;;;16.30;99.90;;;;;;5031478;28;20046;-72
2023/08/18 06:23:13;;;;;;;12.73;7.43;;;16.30;99.90;;;;;;5002360;28;20092;-72
2023/08/18 06:25:39;;;;;;;12.38;6.88;;;16.40;99.90;;;;;;5011145;28;20124;-72
2023/08/18 06:28:08;;;;;;;11.73;7.40;;;16.30;99.90;;;;;;5000196;28;20038;-72
2023/08/18 06:30:33;;;;;;;14.52;7.45;;;16.40;99.90;;;;;;5032014;28;20125;-72
2023/08/18 06:32:59;;;;;;;16.42;7.40;;;16.40;99.90;;;;;;4995724;28;20201;-72
2023/08/18 06:35:25;;;;;;;12.75;7.18;;;16.40;99.90;;;;;;5040547;28;20049;-72
2023/08/18 06:37:50;;;;;;;16.50;8.13;;;16.40;99.90;;;;;;4989499;28;20117;-72
2023/08/18 06:40:16;;;;;;;20.33;8.43;;;16.50;99.90;;;;;;5028008;28;20412;-72
2023/08/18 06:42:42;;;;;;;16.92;8.32;;;16.50;99.90;;;;;;4976687;28;20053;-72
2023/08/18 06:45:08;;;;;;;14.52;8.25;;;16.50;99.90;;;;;;5007086;28;20046;-72
2023/08/18 06:47:34;;;;;;;16.48;8.52;;;16.50;99.90;;;;;;5023096;28;20550;-72
2023/08/18 06:50:05;;;;;;;13.68;8.05;;;16.50;99.90;;;;;;5000693;28;20035;-72
2023/08/18 06:52:34;;;;;;;18.42;8.32;;;16.60;99.90;;;;;;5042143;28;20082;-72
2023/08/18 06:55:01;;;;;;;16.15;7.72;;;16.60;99.90;;;;;;5041002;28;20042;-72
2023/08/18 06:57:27;;;;;;;19.02;9.27;;;16.60;99.90;;;;;;4989800;28;20105;-73
2023/08/18 06:59:52;;;;;;;19.05;9.00;;;16.60;99.90;;;;;;4978430;28;20038;-72
2023/08/18 07:02:18;;;;;;;20.52;8.65;;;16.70;99.90;;;;;;5007040;28;20487;-72
2023/08/18 07:04:44;;;;;;;16.60;8.95;;;16.70;99.90;;;;;;5006876;28;20081;-72
2023/08/18 07:07:10;;;;;;;16.73;8.55;;;16.70;99.90;;;;;;5026549;28;20089;-72
2023/08/18 07:09:35;;;;;;;16.65;8.65;;;16.80;99.90;;;;;;5017560;28;20125;-72
2023/08/18 07:12:01;;;;;;;16.05;8.55;;;16.80;99.90;;;;;;5039496;28;20547;-72
2023/08/18 07:14:27;;;;;;;16.27;9.30;;;16.80;99.90;;;;;;4995235;28;20041;-72
2023/08/18 07:16:52;;;;;;;24.92;9.45;;;16.80;99.90;;;;;;4998210;28;20101;-72
2023/08/18 07:19:18;;;;;;;17.38;8.40;;;16.80;99.90;;;;;;5006007;28;20136;-72
2023/08/18 07:21:44;;;;;;;17.90;9.60;;;16.90;99.90;;;;;;5005959;28;20040;-72
2023/08/18 07:24:09;;;;;;;22.17;10.07;;;16.90;99.90;;;;;;5006949;28;20093;-72
2023/08/18 07:26:35;;;;;;;27.27;10.25;;;16.90;99.90;;;;;;5010948;28;20510;-72
2023/08/18 07:29:01;;;;;;;25.30;10.57;;;16.90;99.90;;;;;;5047919;28;20384;-72
2023/08/18 07:31:27;;;;;;;19.75;9.60;;;16.90;99.90;;;;;;5004978;28;20518;-72
2023/08/18 07:33:53;;;;;;;19.42;9.82;;;16.90;99.90;;;;;;5040270;28;20051;-72
2023/08/18 07:36:18;;;;;;;23.08;9.95;;;17.00;99.90;;;;;;5039676;28;20037;-72
2023/08/18 07:38:44;;;;;;;20.27;10.65;;;17.00;99.90;;;;;;5001465;28;20041;-73
2023/08/18 07:41:10;;;;;;;23.25;10.55;;;17.00;99.90;;;;;;5007183;28;20437;-72
2023/08/18 07:43:36;;;;;;;30.42;12.05;;;17.00;99.90;;;;;;5012902;28;20037;-72
2023/08/18 07:46:02;;;;;;;29.83;11.75;;;17.00;99.90;;;;;;5014411;28;20038;-72
2023/08/18 07:48:27;;;;;;;28.95;11.45;;;17.00;99.90;;;;;;5033436;28;20511;-72
2023/08/18 07:50:53;;;;;;;33.22;12.55;;;17.10;99.90;;;;;;5033285;28;20427;-72
2023/08/18 07:53:19;;;;;;;28.92;12.50;;;17.10;99.90;;;;;;5004570;28;20046;-73
2023/08/18 07:55:46;;;;;;;30.83;12.38;;;17.20;99.90;;;;;;5008448;28;20045;-72
2023/08/18 07:58:12;;;;;;;31.55;11.50;;;17.20;99.90;;;;;;5018570;28;20457;-73
2023/08/18 08:00:37;;;;;;;33.03;11.93;;;17.20;99.90;;;;;;5002848;28;20128;-72
2023/08/18 08:03:03;;;;;;;25.15;11.10;;;17.30;99.90;;;;;;4997784;28;20042;-73
2023/08/18 08:05:30;;;;;;;23.00;11.23;;;17.30;99.90;;;;;;4981910;28;20491;-73
2023/08/18 08:07:55;;;;;;;22.27;11.05;;;17.40;99.90;;;;;;5013763;28;20117;-72
2023/08/18 08:10:21;;;;;;;24.65;11.27;;;17.40;99.90;;;;;;5016068;28;20136;-73
2023/08/18 08:12:48;;;;;;;26.38;11.32;;;17.50;99.90;;;;;;4993048;28;20053;-74
2023/08/18 08:15:15;;;;;;;24.98;10.82;;;17.60;99.90;;;;;;5019779;28;20411;-73
2023/08/18 08:17:41;;;;;;;25.42;10.75;;;17.70;99.90;;;;;;4986111;28;20049;-69
2023/08/18 08:20:18;;;;;;;22.85;10.05;;;17.70;99.90;;;;;;4987392;28;20045;-68
2023/08/18 08:22:49;;;;;;;21.63;10.00;;;17.80;99.90;;;;;;4998371;28;20061;-69
2023/08/18 08:25:18;;;;;;;16.88;9.55;;;17.90;99.90;;;;;;5048773;28;20450;-69
2023/08/18 08:27:44;;;;;;;20.05;9.80;;;18.00;99.90;;;;;;5004631;28;20038;-69
2023/08/18 08:30:16;;;;;;;16.20;9.35;;;18.10;99.90;;;;;;4988057;28;20519;-69
2023/08/18 08:32:42;;;;;;;25.27;10.05;;;18.20;99.90;;;;;;4999861;28;20087;-73
2023/08/18 08:35:08;;;;;;;21.75;9.07;;;18.20;99.90;;;;;;5026073;28;20050;-73
2023/08/18 08:37:33;;;;;;;17.90;8.98;;;18.30;99.90;;;;;;5009100;28;20046;-73
2023/08/18 08:39:59;;;;;;;17.33;9.00;;;18.40;99.90;;;;;;5043185;28;20423;-73
2023/08/18 08:42:25;;;;;;;17.10;9.05;;;18.40;99.90;;;;;;5020362;28;20048;-74
2023/08/18 08:44:51;;;;;;;15.95;8.57;;;18.50;99.90;;;;;;5010116;28;20104;-74
2023/08/18 08:47:17;;;;;;;14.32;7.85;;;18.50;99.90;;;;;;5010477;28;20052;-73
2023/08/18 08:49:46;;;;;;;15.13;8.48;;;18.60;99.90;;;;;;4977172;28;20505;-73
2023/08/18 08:52:16;;;;;;;13.77;8.15;;;18.70;99.90;;;;;;5010584;28;20069;-73
2023/08/18 08:54:58;;;;;;;13.48;7.90;;;18.80;99.90;;;;;;4968666;28;20042;-73
2023/08/18 08:57:24;;;;;;;15.40;8.30;;;18.90;99.90;;;;;;5009568;28;20048;-73
2023/08/18 08:59:50;;;;;;;14.98;7.65;;;19.10;99.90;;;;;;5009755;28;20042;-73
2023/08/18 09:02:16;;;;;;;20.80;8.35;;;19.10;99.90;;;;;;4977257;28;20088;-73
2023/08/18 09:04:41;;;;;;;16.73;8.20;;;19.10;99.90;;;;;;4977142;28;20046;-73
2023/08/18 09:07:10;;;;;;;18.17;8.27;;;19.20;99.90;;;;;;5027240;28;20076;-73
2023/08/18 09:09:36;;;;;;;15.73;7.80;;;19.20;99.90;;;;;;4978512;28;20030;-73
2023/08/18 09:12:07;;;;;;;14.73;8.45;;;19.30;99.90;;;;;;5008155;28;20118;-73
2023/08/18 09:14:34;;;;;;;15.40;8.20;;;19.30;99.90;;;;;;4982570;28;20602;-73
2023/08/18 09:17:02;;;;;;;16.13;8.35;;;19.40;99.90;;;;;;5041102;28;20116;-73
2023/08/18 09:19:28;;;;;;;11.45;7.57;;;19.50;99.90;;;;;;5005334;28;20101;-73
2023/08/18 09:22:00;;;;;;;14.13;7.88;;;19.60;99.90;;;;;;4998411;28;20042;-73
2023/08/18 09:24:29;;;;;;;;;;;19.70;99.90;;;;;;5027432;28;20034;-73
2023/08/18 09:27:04;;;;;;;12.38;7.65;;;19.70;99.90;;;;;;5010212;28;19917;-73
2023/08/18 09:29:30;;;;;;;15.45;7.60;;;19.80;99.90;;;;;;5030539;28;20042;-73
2023/08/18 09:31:56;;;;;;;15.32;7.75;;;19.80;99.90;;;;;;5014064;28;20142;-73
2023/08/18 09:34:23;;;;;;;10.07;7.47;;;19.90;99.90;;;;;;5012844;28;20054;-73
2023/08/18 09:36:55;;;;;;;19.00;8.43;;;20.00;99.90;;;;;;4987044;28;20103;-73
2023/08/18 09:39:21;;;;;;;14.77;8.05;;;20.00;99.90;;;;;;5011577;28;20042;-73
2023/08/18 09:41:52;;;;;;;11.48;7.35;;;20.00;99.90;;;;;;5038468;28;20039;-73
2023/08/18 09:44:19;;;;;;;13.52;7.57;;;20.00;99.90;;;;;;5025027;28;20107;-73
2023/08/18 09:46:55;;;;;;;13.30;7.97;;;20.00;99.90;;;;;;4981035;28;20539;-73
2023/08/18 09:49:22;;;;;;;14.80;8.07;;;20.00;99.90;;;;;;5010208;28;20514;-73
2023/08/18 09:52:15;;;;;;;18.98;7.70;;;20.00;99.90;;;;;;5012501;28;20041;-73
2023/08/18 09:54:54;;;;;;;11.65;6.85;;;20.10;99.90;;;;;;5026518;28;20053;-73
2023/08/18 09:57:32;;;;;;;14.07;6.80;;;20.20;99.90;;;;;;5009605;28;20051;-73
2023/08/18 09:59:59;;;;;;;10.55;7.50;;;20.30;99.90;;;;;;5043711;28;20037;-73
2023/08/18 10:02:46;;;;;;;9.85;7.15;;;20.40;99.90;;;;;;5012534;28;20492;-73
2023/08/18 10:05:14;;;;;;;10.95;7.60;;;20.50;99.90;;;;;;5018294;28;20053;-77
2023/08/18 10:07:40;;;;;;;10.65;7.22;;;20.50;99.90;;;;;;5005831;28;20049;-76
2023/08/18 10:10:08;;;;;;;10.65;6.97;;;20.60;99.90;;;;;;5018041;28;20045;-77
2023/08/18 10:12:33;;;;;;;9.63;7.45;;;20.70;99.90;;;;;;4992101;28;20042;-76
2023/08/18 10:15:00;;;;;;;12.65;7.13;;;20.70;99.90;;;;;;5034906;28;20053;-75
2023/08/18 10:17:26;;;;;;;13.13;7.85;;;20.80;99.90;;;;;;5018349;28;20046;-79
2023/08/18 10:19:55;;;;;;;12.00;7.40;;;20.80;99.90;;;;;;5025750;28;20037;-78
2023/08/18 10:22:29;;;;;;;10.60;7.13;;;20.80;99.90;;;;;;4999645;28;20046;-77
2023/08/18 10:24:56;;;;;;;10.00;7.22;;;20.90;99.90;;;;;;4991656;28;20038;-77
2023/08/18 10:27:27;;;;;;;10.23;8.07;;;21.00;99.90;;;;;;4989524;28;20034;-77
2023/08/18 10:30:02;;;;;;;11.05;7.38;;;21.00;99.90;;;;;;5001572;28;20030;-78
2023/08/18 10:32:31;;;;;;;10.68;6.95;;;21.00;99.90;;;;;;5023498;28;20038;-77
2023/08/18 10:35:22;;;;;;;14.38;8.38;;;21.10;99.90;;;;;;5038195;28;20133;-77
2023/08/18 10:37:49;;;;;;;14.10;7.80;;;21.30;99.90;;;;;;5039033;28;20041;-76
2023/08/18 10:40:41;;;;;;;12.02;8.32;;;21.40;99.90;;;;;;5000119;28;20494;-77
2023/08/18 10:43:12;;;;;;;10.25;8.35;;;21.40;99.90;;;;;;4985016;28;20081;-74
2023/08/18 10:45:40;;;;;;;11.90;8.30;;;21.50;99.90;;;;;;5006691;28;20044;-78
2023/08/18 10:48:09;;;;;;;10.77;8.93;;;21.70;99.90;;;;;;5004873;28;20075;-75
2023/08/18 10:50:41;;;;;;;10.95;7.88;;;22.00;99.90;;;;;;5004164;28;20091;-76
2023/08/18 10:53:07;;;;;;;;;;;22.30;99.90;;;;;;4995992;28;21552;-77
2023/08/18 10:55:33;;;;;;;15.65;8.27;;;22.50;99.90;;;;;;5024312;28;19924;-76
2023/08/18 10:58:00;;;;;;;11.52;8.15;;;22.70;99.90;;;;;;4998899;28;20045;-73
2023/08/18 11:00:30;;;;;;;11.43;8.02;;;23.00;99.90;;;;;;4986923;28;20042;-73
2023/08/18 11:02:56;;;;;;;11.80;8.98;;;23.30;99.90;;;;;;5025326;28;20125;-73
2023/08/18 11:05:23;;;;;;;11.90;8.82;;;23.60;99.90;;;;;;5016993;28;20120;-72
2023/08/18 11:07:52;;;;;;;14.23;8.68;;;23.70;99.90;;;;;;4996304;28;20037;-73
2023/08/18 11:10:23;;;;;;;12.95;9.25;;;23.70;99.90;;;;;;5000492;28;20088;-72
2023/08/18 11:12:50;;;;;;;13.63;9.10;;;23.50;99.90;;;;;;5004817;28;20048;-73
2023/08/18 11:15:19;;;;;;;14.77;9.57;;;23.30;99.90;;;;;;5025873;28;20456;-73
2023/08/18 11:17:46;;;;;;;13.02;10.20;;;23.20;99.90;;;;;;4997258;28;20037;-73
2023/08/18 11:20:15;;;;;;;15.32;9.73;;;23.20;99.90;;;;;;5035830;28;20495;-74
2023/08/18 11:22:47;;;;;;;13.80;9.05;;;23.30;99.90;;;;;;5017838;28;20065;-73
2023/08/18 11:25:14;;;;;;;15.98;10.50;;;23.50;99.90;;;;;;4999612;28;20771;-73
2023/08/18 11:27:44;;;;;;;13.32;9.60;;;23.70;99.90;;;;;;4998006;28;20046;-73
2023/08/18 11:30:13;;;;;;;14.10;9.60;;;23.70;99.90;;;;;;5018459;28;20043;-73
2023/08/18 11:32:40;;;;;;;15.05;10.13;;;23.70;99.90;;;;;;5031519;28;20049;-72
2023/08/18 11:35:07;;;;;;;24.20;11.20;;;23.70;99.90;;;;;;5034485;28;20057;-76
2023/08/18 11:37:45;;;;;;;15.10;10.30;;;23.70;99.90;;;;;;5008958;28;20096;-77
2023/08/18 11:40:17;;;;;;;14.60;10.75;;;23.70;99.90;;;;;;4991988;28;20030;-74
2023/08/18 11:42:45;;;;;;;15.55;10.25;;;23.80;99.90;;;;;;5036315;28;20045;-74
2023/08/18 11:45:15;;;;;;;14.10;10.73;;;23.80;99.90;;;;;;4995600;28;20100;-75
2023/08/18 11:47:41;;;;;;;12.32;9.85;;;23.80;99.90;;;;;;4994358;28;20069;-75
2023/08/18 11:50:07;;;;;;;13.45;9.85;;;24.10;99.90;;;;;;5019486;28;20047;-75
2023/08/18 11:52:50;;;;;;;14.57;10.57;;;24.30;99.90;;;;;;5002454;28;20041;-73
2023/08/18 11:55:15;;;;;;;15.07;10.68;;;24.50;99.90;;;;;;5033160;28;20092;-74
2023/08/18 11:57:44;;;;;;;14.88;10.27;;;24.60;99.90;;;;;;5005183;28;20040;-76
2023/08/18 12:00:13;;;;;;;17.63;12.10;;;24.60;99.90;;;;;;5029491;28;20117;-75
2023/08/18 12:02:46;;;;;;;13.10;10.82;;;24.60;99.90;;;;;;5023756;28;20076;-73
2023/08/18 12:05:23;;;;;;;14.00;11.27;;;24.80;99.90;;;;;;4992676;28;20551;-74
2023/08/18 12:07:53;;;;;;;13.60;10.07;;;25.00;99.90;;;;;;5006698;28;20037;-71
2023/08/18 12:10:22;;;;;;;13.45;9.73;;;25.20;99.90;;;;;;5024212;28;20038;-72
2023/08/18 12:12:56;;;;;;;15.00;10.05;;;25.20;99.90;;;;;;4990942;28;20073;-73
2023/08/18 12:15:25;;;;;;;11.40;9.68;;;25.40;99.90;;;;;;4997266;28;20065;-71
2023/08/18 12:17:52;;;;;;;13.52;9.88;;;25.50;99.90;;;;;;5020567;28;20141;-71
2023/08/18 12:20:18;;;;;;;31.80;10.43;;;25.60;99.90;;;;;;5038887;28;20057;-71
2023/08/18 12:22:48;;;;;;;14.90;9.73;;;25.60;99.90;;;;;;4974101;28;20075;-69
2023/08/18 12:25:13;;;;;;;13.52;9.55;;;25.50;99.90;;;;;;5013658;28;20522;-70
2023/08/18 12:27:39;;;;;;;15.90;9.75;;;25.30;99.90;;;;;;4972574;28;20034;-71
2023/08/18 12:30:07;;;;;;;13.65;9.80;;;25.20;99.90;;;;;;5012173;28;20108;-71
2023/08/18 12:32:33;;;;;;;13.85;11.00;;;25.10;99.90;;;;;;4987790;28;20038;-71
2023/08/18 12:35:03;;;;;;;13.13;9.93;;;25.00;99.90;;;;;;5003868;28;20054;-72
2023/08/18 12:37:29;;;;;;;12.88;10.52;;;24.90;99.90;;;;;;4986927;28;20483;-71
2023/08/18 12:39:55;;;;;;;16.63;10.43;;;24.90;99.90;;;;;;5023457;28;20124;-72